EHEH/EIN METAR and TAF weather

Enter ICAO airport designator
Station Type Date Time Source
EHEH METAR 2018/07/21 13:25 UTC NOAA

EHEH 211325Z AUTO VRB09KT 9999 NCD 28/12 Q1011 BLU 29007KT CAVOK


Station Type Date Time Source
EHEH Decoded METAR 2018/07/21 13:25 UTC NOAA

Eindhoven, Netherlands (EHEH) 51-27N 005-25E 28M
Jul 21, 2018 - 09:25 AM EDT / 2018.07.21 1325 UTC
Wind: Variable at 10 MPH (9 KT):0
Visibility: greater than 7 mile(s):0
Temperature: 82 F (28 C)
Dew Point: 53 F (12 C)
Relative Humidity: 37%
Pressure (altimeter): 29.85 in. Hg (1011 hPa)
ob: EHEH 211325Z AUTO VRB09KT 9999 NCD 28/12 Q1011 BLU 29007KT CAVOK
cycle: 13

Station Type Date Time Source
EHEH TAF 2018/07/21 12:33 UTC NOAA

TAF TAF EHEH 211122Z 2112/2218 29008KT CAVOK


Example: see airport list